createdAt,value
2022-07-27T00:01:51.905Z,3.90
2022-07-27T00:04:19.996Z,4.47
2022-07-27T00:06:48.477Z,3.90
2022-07-27T00:09:16.150Z,4.07
2022-07-27T00:11:43.628Z,4.20
2022-07-27T00:14:10.870Z,4.70
2022-07-27T00:16:38.394Z,4.40
2022-07-27T00:19:08.626Z,4.10
2022-07-27T00:21:44.446Z,3.88
2022-07-27T00:24:13.659Z,4.18
2022-07-27T00:26:40.926Z,4.43
2022-07-27T00:29:08.552Z,4.20
2022-07-27T00:31:36.212Z,4.10
2022-07-27T00:34:03.598Z,4.45
2022-07-27T00:36:30.857Z,4.00
2022-07-27T00:38:58.160Z,4.28
2022-07-27T00:41:25.453Z,4.03
2022-07-27T00:44:00.036Z,3.95
2022-07-27T00:46:28.150Z,4.20
2022-07-27T00:48:55.580Z,3.70
2022-07-27T00:51:23.308Z,3.90
2022-07-27T00:53:52.371Z,3.90
2022-07-27T00:56:19.806Z,3.65
2022-07-27T00:58:48.901Z,3.70
2022-07-27T01:01:16.889Z,4.20
2022-07-27T01:03:44.315Z,3.60
2022-07-27T01:06:15.631Z,3.83
2022-07-27T01:08:42.972Z,4.13
2022-07-27T01:11:10.349Z,4.32
2022-07-27T01:13:37.986Z,4.10
2022-07-27T01:16:06.650Z,3.80
2022-07-27T01:18:35.681Z,4.18
2022-07-27T01:21:04.090Z,4.03
2022-07-27T01:23:32.490Z,4.00
2022-07-27T01:26:00.799Z,4.05
2022-07-27T01:28:28.249Z,3.90
2022-07-27T01:30:55.799Z,4.07
2022-07-27T01:33:26.152Z,4.03
2022-07-27T01:35:57.288Z,3.97
2022-07-27T01:38:24.956Z,3.85
2022-07-27T01:40:53.437Z,3.90
2022-07-27T01:43:21.462Z,3.60
2022-07-27T01:45:49.419Z,3.90
2022-07-27T01:48:17.264Z,3.85
2022-07-27T01:50:47.613Z,3.92
2022-07-27T01:53:16.173Z,4.10
2022-07-27T01:55:43.975Z,4.10
2022-07-27T01:58:12.152Z,4.25
2022-07-27T02:00:41.141Z,4.05
2022-07-27T02:03:09.548Z,4.20
2022-07-27T02:05:37.280Z,4.38
2022-07-27T02:08:06.522Z,4.40
2022-07-27T02:10:35.321Z,4.43
2022-07-27T02:13:22.557Z,4.40
2022-07-27T02:15:54.600Z,3.97
2022-07-27T02:18:33.354Z,3.72
2022-07-27T02:21:06.118Z,3.90
2022-07-27T02:23:34.662Z,3.97
2022-07-27T02:26:04.616Z,4.05
2022-07-27T02:28:33.104Z,4.13
2022-07-27T02:31:01.045Z,4.10
2022-07-27T02:33:28.902Z,4.45
2022-07-27T02:35:56.970Z,4.20
2022-07-27T02:38:25.808Z,4.25
2022-07-27T02:40:53.580Z,3.70
2022-07-27T02:43:22.030Z,4.05
2022-07-27T02:45:51.649Z,4.40
2022-07-27T02:48:19.737Z,4.00
2022-07-27T02:50:47.779Z,3.97
2022-07-27T02:53:15.338Z,4.43
2022-07-27T02:55:43.192Z,3.83
2022-07-27T02:58:12.909Z,3.90
2022-07-27T03:00:40.625Z,4.13
2022-07-27T03:03:08.518Z,4.20
2022-07-27T03:05:36.290Z,3.80
2022-07-27T03:08:05.803Z,3.88
2022-07-27T03:10:33.910Z,3.72
2022-07-27T03:13:01.990Z,4.00
2022-07-27T03:15:30.013Z,3.97
2022-07-27T03:17:57.625Z,3.42
2022-07-27T03:20:25.184Z,3.75
2022-07-27T03:22:54.193Z,3.90
2022-07-27T03:25:22.328Z,3.90
2022-07-27T03:27:50.661Z,3.65
2022-07-27T03:30:18.388Z,3.67
2022-07-27T03:32:48.366Z,3.70
2022-07-27T03:35:16.614Z,3.70
2022-07-27T03:37:44.240Z,4.07
2022-07-27T03:40:14.818Z,3.40
2022-07-27T03:42:42.444Z,4.00
2022-07-27T03:45:10.910Z,3.88
2022-07-27T03:47:38.742Z,3.47
2022-07-27T03:50:06.615Z,3.30
2022-07-27T03:52:35.384Z,3.47
2022-07-27T03:55:03.334Z,3.15
2022-07-27T03:57:31.760Z,3.55
2022-07-27T03:59:59.507Z,3.40
2022-07-27T04:02:27.006Z,3.28
2022-07-27T04:04:54.352Z,3.20
2022-07-27T04:07:21.709Z,3.30
2022-07-27T04:09:49.082Z,2.97
2022-07-27T04:12:17.554Z,3.40
2022-07-27T04:14:47.526Z,3.70
2022-07-27T04:17:56.547Z,3.03
2022-07-27T04:24:19.303Z,3.25
2022-07-27T04:26:46.690Z,2.85
2022-07-27T04:29:19.795Z,3.00
2022-07-27T04:31:48.913Z,3.03
2022-07-27T04:34:16.451Z,3.03
2022-07-27T04:36:44.740Z,2.88
2022-07-27T04:39:12.572Z,3.25
2022-07-27T04:41:40.066Z,3.40
2022-07-27T04:44:07.373Z,2.95
2022-07-27T04:46:34.822Z,2.78
2022-07-27T04:49:02.300Z,2.85
2022-07-27T04:51:34.387Z,3.05
2022-07-27T04:54:02.553Z,2.80
2022-07-27T04:56:30.032Z,2.97
2022-07-27T04:58:57.442Z,3.17
2022-07-27T05:01:26.681Z,3.00
2022-07-27T05:03:55.714Z,2.80
2022-07-27T05:07:26.163Z,2.95
2022-07-27T05:09:53.511Z,3.08
2022-07-27T05:12:21.980Z,2.60
2022-07-27T05:14:49.298Z,2.90
2022-07-27T05:17:23.944Z,2.58
2022-07-27T05:19:51.404Z,2.70
2022-07-27T05:22:19.201Z,2.83
2022-07-27T05:24:46.510Z,2.30
2022-07-27T05:27:13.930Z,2.80
2022-07-27T05:29:41.293Z,2.42
2022-07-27T05:32:14.692Z,2.90
2022-07-27T05:34:42.184Z,2.63
2022-07-27T05:37:09.564Z,2.70
2022-07-27T05:48:29.655Z,2.50
2022-07-27T05:52:00.102Z,2.67
2022-07-27T05:58:47.189Z,2.70
2022-07-27T06:02:05.339Z,3.20
2022-07-27T06:08:57.108Z,2.47
2022-07-27T06:15:37.431Z,2.40
2022-07-27T06:22:30.148Z,2.40
2022-07-27T06:29:17.136Z,2.30
2022-07-27T06:36:03.129Z,2.13
2022-07-27T06:42:49.082Z,2.90
2022-07-27T06:54:20.279Z,2.50
2022-07-27T07:01:07.355Z,2.55
2022-07-27T07:07:53.407Z,2.40
2022-07-27T07:11:11.888Z,2.40
2022-07-27T07:19:02.323Z,2.75
2022-07-27T07:25:56.220Z,2.83
2022-07-27T07:32:36.171Z,2.63
2022-07-27T07:39:31.441Z,2.53
2022-07-27T07:46:19.349Z,2.72
2022-07-27T07:54:10.262Z,2.30
2022-07-27T07:56:37.809Z,2.55
2022-07-27T07:59:39.328Z,2.55
2022-07-27T08:06:32.223Z,2.78
2022-07-27T08:13:22.315Z,2.65
2022-07-27T08:20:18.016Z,2.70
2022-07-27T08:26:58.838Z,3.25
2022-07-27T08:33:52.552Z,3.00
2022-07-27T08:36:20.019Z,3.03
2022-07-27T08:40:37.385Z,2.88
2022-07-27T08:55:45.856Z,3.30
2022-07-27T09:02:32.691Z,2.55
2022-07-27T09:05:36.758Z,2.70
2022-07-27T09:08:13.318Z,2.83
2022-07-27T09:10:41.125Z,3.03
2022-07-27T09:17:47.953Z,2.88
2022-07-27T09:25:05.487Z,2.70
2022-07-27T09:31:52.135Z,2.45
2022-07-27T09:35:21.846Z,2.53
2022-07-27T09:53:43.677Z,2.30
2022-07-27T10:00:58.444Z,1.90
2022-07-27T10:03:26.134Z,2.40
2022-07-27T10:05:53.857Z,2.40
2022-07-27T10:12:51.948Z,2.42
2022-07-27T10:15:59.456Z,2.22
2022-07-27T10:26:37.266Z,2.20
2022-07-27T10:41:46.695Z,1.90
2022-07-27T10:48:47.786Z,1.95
2022-07-27T10:53:11.092Z,2.30
2022-07-27T11:00:13.365Z,1.90
2022-07-27T11:03:24.297Z,2.00
2022-07-27T11:10:05.962Z,2.10
2022-07-27T11:13:01.490Z,2.00
2022-07-27T11:27:31.053Z,1.85
2022-07-27T11:34:20.194Z,1.92
2022-07-27T11:37:38.322Z,1.75
2022-07-27T11:44:38.196Z,1.90
2022-07-27T11:51:21.352Z,2.13
2022-07-27T12:07:37.078Z,2.00
2022-07-27T12:18:56.137Z,2.10
2022-07-27T12:21:34.927Z,2.03
2022-07-27T12:24:03.418Z,1.85
2022-07-27T12:26:31.026Z,1.75
2022-07-27T12:29:11.947Z,1.90
2022-07-27T12:31:48.139Z,1.73
2022-07-27T12:34:16.109Z,1.80
2022-07-27T12:41:09.529Z,1.88
2022-07-27T12:43:36.917Z,1.83
2022-07-27T12:46:55.318Z,1.98
2022-07-27T12:53:50.292Z,2.17
2022-07-27T13:05:11.337Z,2.28
2022-07-27T13:08:37.605Z,2.20
2022-07-27T13:11:05.542Z,2.08
2022-07-27T13:13:32.894Z,2.03
2022-07-27T13:16:58.035Z,2.90
2022-07-27T13:19:25.666Z,2.15
2022-07-27T13:21:56.296Z,2.60
2022-07-27T13:24:23.686Z,2.00
2022-07-27T13:26:51.211Z,2.42
2022-07-27T13:29:18.661Z,2.33
2022-07-27T13:36:40.729Z,2.17
2022-07-27T13:43:21.151Z,2.20
2022-07-27T13:45:48.843Z,2.40
2022-07-27T13:48:18.597Z,1.98
2022-07-27T13:50:46.468Z,2.10
2022-07-27T13:58:05.494Z,2.17
2022-07-27T14:13:13.624Z,2.20
2022-07-27T14:16:10.333Z,2.22
2022-07-27T14:18:38.080Z,2.45
2022-07-27T14:21:06.162Z,2.15
2022-07-27T14:27:53.181Z,2.35
2022-07-27T14:34:44.927Z,2.17
2022-07-27T14:37:12.225Z,2.10
2022-07-27T14:39:40.338Z,2.00
2022-07-27T14:42:08.302Z,2.28
2022-07-27T14:44:36.524Z,1.90
2022-07-27T14:47:03.875Z,1.92
2022-07-27T14:49:31.349Z,2.00
2022-07-27T14:51:58.674Z,2.08
2022-07-27T14:54:33.558Z,1.80
2022-07-27T14:57:03.489Z,1.90
2022-07-27T14:59:30.847Z,2.17
2022-07-27T15:01:58.312Z,2.45
2022-07-27T15:04:26.752Z,2.03
2022-07-27T15:06:57.269Z,2.10
2022-07-27T15:09:26.708Z,1.90
2022-07-27T15:16:24.201Z,2.03
2022-07-27T15:18:51.969Z,1.85
2022-07-27T15:21:19.817Z,1.85
2022-07-27T15:23:47.133Z,1.80
2022-07-27T15:26:14.445Z,2.42
2022-07-27T15:28:41.986Z,15.55
2022-07-27T15:31:09.663Z,8.32
2022-07-27T15:33:37.118Z,5.28
2022-07-27T15:36:06.540Z,3.40
2022-07-27T15:38:33.868Z,3.00
2022-07-27T15:41:01.199Z,2.35
2022-07-27T15:43:28.492Z,2.30
2022-07-27T15:45:55.794Z,1.83
2022-07-27T15:48:23.374Z,1.92
2022-07-27T15:51:10.118Z,2.95
2022-07-27T15:53:37.465Z,2.10
2022-07-27T15:56:06.242Z,2.38
2022-07-27T15:58:33.575Z,2.45
2022-07-27T16:05:14.190Z,2.70
2022-07-27T16:08:12.176Z,2.10
2022-07-27T16:10:40.188Z,2.53
2022-07-27T16:13:08.162Z,2.00
2022-07-27T16:15:55.432Z,2.20
2022-07-27T16:18:22.918Z,2.08
2022-07-27T16:20:50.818Z,2.13
2022-07-27T16:23:21.721Z,2.45
2022-07-27T16:26:03.914Z,2.05
2022-07-27T16:28:33.135Z,2.13
2022-07-27T16:31:00.587Z,2.53
2022-07-27T16:33:27.964Z,2.30
2022-07-27T16:36:00.491Z,2.10
2022-07-27T16:38:28.094Z,2.10
2022-07-27T16:41:07.272Z,2.15
2022-07-27T16:43:38.554Z,2.40
2022-07-27T16:46:07.812Z,2.30
2022-07-27T16:49:38.387Z,2.72
2022-07-27T16:52:31.306Z,2.30
2022-07-27T16:54:58.651Z,2.38
2022-07-27T16:57:26.080Z,3.50
2022-07-27T16:59:53.524Z,2.35
2022-07-27T17:02:21.337Z,2.20
2022-07-27T17:04:48.955Z,2.20
2022-07-27T17:07:16.348Z,3.08
2022-07-27T17:09:43.737Z,2.63
2022-07-27T17:12:11.102Z,2.72
2022-07-27T17:14:45.777Z,2.20
2022-07-27T17:17:14.797Z,2.08
2022-07-27T17:19:42.207Z,2.30
2022-07-27T17:22:09.514Z,2.42
2022-07-27T17:24:38.360Z,6.25
2022-07-27T17:27:06.737Z,6.88
2022-07-27T17:29:34.379Z,5.50
2022-07-27T17:32:01.651Z,2.78
2022-07-27T17:34:29.154Z,2.40
2022-07-27T17:36:56.477Z,2.22
2022-07-27T17:39:23.995Z,2.42
2022-07-27T17:41:52.444Z,2.30
2022-07-27T17:44:19.767Z,3.70
2022-07-27T17:46:47.131Z,4.28
2022-07-27T17:49:14.900Z,6.40
2022-07-27T17:51:42.492Z,3.30
2022-07-27T17:54:09.792Z,2.33
2022-07-27T17:56:46.151Z,2.38
2022-07-27T17:59:36.433Z,2.30
2022-07-27T18:02:27.420Z,2.42
2022-07-27T18:04:54.898Z,2.35
2022-07-27T18:07:22.259Z,2.33
2022-07-27T18:09:49.601Z,2.40
2022-07-27T18:12:21.483Z,2.33
2022-07-27T18:15:08.076Z,2.50
2022-07-27T18:17:39.252Z,2.80
2022-07-27T18:20:10.593Z,3.35
2022-07-27T18:22:38.627Z,2.80
2022-07-27T18:25:07.070Z,2.25
2022-07-27T18:27:35.474Z,2.50
2022-07-27T18:34:22.201Z,2.45
2022-07-27T18:36:49.578Z,4.05
2022-07-27T18:39:17.262Z,3.33
2022-07-27T18:41:44.688Z,2.78
2022-07-27T18:44:12.499Z,3.20
2022-07-27T18:46:42.022Z,2.47
2022-07-27T18:49:14.081Z,3.13
2022-07-27T18:51:41.732Z,2.53
2022-07-27T18:54:09.222Z,3.00
2022-07-27T18:56:37.969Z,2.80
2022-07-27T18:59:06.548Z,2.85
2022-07-27T19:01:34.023Z,3.00
2022-07-27T19:04:02.004Z,3.55
2022-07-27T19:06:31.172Z,4.30
2022-07-27T19:08:58.569Z,4.75
2022-07-27T19:11:27.461Z,4.20
2022-07-27T19:13:56.487Z,4.88
2022-07-27T19:16:25.318Z,3.60
2022-07-27T19:18:52.901Z,4.05
2022-07-27T19:21:21.255Z,3.20
2022-07-27T19:23:48.651Z,3.03
2022-07-27T19:26:16.281Z,3.60
2022-07-27T19:28:44.301Z,3.20
2022-07-27T19:31:23.323Z,3.65
2022-07-27T19:33:52.269Z,4.00
2022-07-27T19:36:23.233Z,4.05
2022-07-27T19:38:50.923Z,3.50
2022-07-27T19:41:20.520Z,3.85
2022-07-27T19:43:47.889Z,3.83
2022-07-27T19:46:15.776Z,3.63
2022-07-27T19:48:43.300Z,3.53
2022-07-27T19:51:10.946Z,3.60
2022-07-27T19:54:03.663Z,3.80
2022-07-27T19:56:36.808Z,3.53
2022-07-27T19:59:05.027Z,4.00
2022-07-27T20:01:32.539Z,4.05
2022-07-27T20:04:00.775Z,3.80
2022-07-27T20:06:41.269Z,3.83
2022-07-27T20:09:08.888Z,3.78
2022-07-27T20:11:39.600Z,4.00
2022-07-27T20:14:06.909Z,3.90
2022-07-27T20:16:44.479Z,3.63
2022-07-27T20:19:12.458Z,3.88
2022-07-27T20:21:40.461Z,4.00
2022-07-27T20:25:14.916Z,3.90
2022-07-27T20:27:42.687Z,3.72
2022-07-27T20:34:39.737Z,3.65
2022-07-27T20:37:07.250Z,3.80
2022-07-27T20:39:34.536Z,3.65
2022-07-27T20:42:20.343Z,3.95
2022-07-27T20:44:47.993Z,4.13
2022-07-27T20:47:46.517Z,4.10
2022-07-27T20:50:14.822Z,3.50
2022-07-27T20:52:42.876Z,4.00
2022-07-27T20:55:10.423Z,4.43
2022-07-27T20:58:34.733Z,4.07
2022-07-27T21:01:02.157Z,3.75
2022-07-27T21:03:29.646Z,3.90
2022-07-27T21:06:03.028Z,4.07
2022-07-27T21:08:30.367Z,3.58
2022-07-27T21:10:57.799Z,3.95
2022-07-27T21:13:25.404Z,4.07
2022-07-27T21:15:53.048Z,3.97
2022-07-27T21:19:01.541Z,4.32
2022-07-27T21:21:29.306Z,3.83
2022-07-27T21:24:15.514Z,4.00
2022-07-27T21:26:46.807Z,3.65
2022-07-27T21:29:16.376Z,4.10
2022-07-27T21:31:48.319Z,4.22
2022-07-27T21:34:18.810Z,4.07
2022-07-27T21:36:46.437Z,3.78
2022-07-27T21:39:13.888Z,4.43
2022-07-27T21:41:41.591Z,3.95
2022-07-27T21:44:37.448Z,4.40
2022-07-27T21:47:11.457Z,3.97
2022-07-27T21:49:42.255Z,4.00
2022-07-27T21:52:09.610Z,4.65
2022-07-27T21:54:37.230Z,4.20
2022-07-27T21:57:06.475Z,4.10
2022-07-27T21:59:33.859Z,3.97
2022-07-27T22:02:01.607Z,3.80
2022-07-27T22:04:30.441Z,3.88
2022-07-27T22:06:57.758Z,3.92
2022-07-27T22:09:25.872Z,4.40
2022-07-27T22:11:53.321Z,4.47
2022-07-27T22:14:24.043Z,4.53
2022-07-27T22:16:52.958Z,4.40
2022-07-27T22:19:20.447Z,4.10
2022-07-27T22:21:47.839Z,3.97
2022-07-27T22:24:18.660Z,4.50
2022-07-27T22:26:51.639Z,4.65
2022-07-27T22:29:19.184Z,4.20
2022-07-27T22:31:47.832Z,4.35
2022-07-27T22:34:15.706Z,4.10
2022-07-27T22:36:43.668Z,4.07
2022-07-27T22:39:14.160Z,3.72
2022-07-27T22:41:41.662Z,4.00
2022-07-27T22:44:10.723Z,4.05
2022-07-27T22:46:38.404Z,3.72
2022-07-27T22:49:09.602Z,4.15
2022-07-27T22:51:52.642Z,4.05
2022-07-27T22:54:21.065Z,4.13
2022-07-27T22:56:48.801Z,4.10
2022-07-27T22:59:16.562Z,4.25
2022-07-27T23:01:46.014Z,3.95
2022-07-27T23:04:18.091Z,4.18
2022-07-27T23:06:47.361Z,3.90
2022-07-27T23:12:05.527Z,4.15
2022-07-27T23:15:01.526Z,3.92
2022-07-27T23:17:32.744Z,4.00
2022-07-27T23:20:03.479Z,4.03
2022-07-27T23:22:31.754Z,4.10
2022-07-27T23:25:09.545Z,4.43
2022-07-27T23:27:42.511Z,4.20
2022-07-27T23:30:15.372Z,4.28
2022-07-27T23:32:55.229Z,4.30
2022-07-27T23:35:25.187Z,4.15
2022-07-27T23:37:55.422Z,4.30
2022-07-27T23:40:43.837Z,4.35
2022-07-27T23:43:18.079Z,4.80
2022-07-27T23:45:47.199Z,4.70
2022-07-27T23:48:17.644Z,4.53
2022-07-27T23:50:54.750Z,4.85
2022-07-27T23:53:22.447Z,4.75
2022-07-27T23:55:50.502Z,5.20
